createdAt,value
2023-01-02T00:01:00.576Z,100.00
2023-01-02T00:08:19.107Z,100.00
2023-01-02T00:15:37.371Z,100.00
2023-01-02T00:22:57.473Z,100.00
2023-01-02T00:30:15.931Z,100.00
2023-01-02T00:37:34.278Z,100.00
2023-01-02T00:44:53.934Z,100.00
2023-01-02T00:52:12.271Z,100.00
2023-01-02T00:59:30.683Z,100.00
2023-01-02T01:06:50.347Z,100.00
2023-01-02T01:14:08.832Z,100.00
2023-01-02T01:21:27.088Z,100.00
2023-01-02T01:28:46.721Z,100.00
2023-01-02T01:36:05.783Z,100.00
2023-01-02T01:43:40.249Z,100.00
2023-01-02T01:51:00.171Z,100.00
2023-01-02T01:58:21.806Z,100.00
2023-01-02T02:05:41.224Z,100.00
2023-01-02T02:13:01.096Z,100.00
2023-01-02T02:20:31.182Z,100.00
2023-01-02T02:28:07.947Z,100.00
2023-01-02T02:35:34.875Z,100.00
2023-01-02T02:42:59.861Z,100.00
2023-01-02T02:50:23.803Z,100.00
2023-01-02T02:57:44.711Z,100.00
2023-01-02T03:05:05.746Z,100.00
2023-01-02T03:12:31.249Z,100.00
2023-01-02T03:19:55.716Z,100.00
2023-01-02T03:27:18.719Z,100.00
2023-01-02T03:34:38.789Z,100.00
2023-01-02T03:42:01.002Z,100.00
2023-01-02T03:49:23.025Z,100.00
2023-01-02T03:56:47.179Z,100.00
2023-01-02T04:04:10.832Z,100.00
2023-01-02T04:11:30.635Z,100.00
2023-01-02T04:18:50.514Z,100.00
2023-01-02T04:26:11.631Z,100.00
2023-01-02T04:33:32.136Z,100.00
2023-01-02T04:40:50.654Z,100.00
2023-01-02T04:48:10.438Z,100.00
2023-01-02T04:55:29.040Z,100.00
2023-01-02T05:02:47.378Z,100.00
2023-01-02T05:10:07.946Z,100.00
2023-01-02T05:17:26.624Z,100.00
2023-01-02T05:24:44.891Z,100.00
2023-01-02T05:32:04.535Z,100.00
2023-01-02T05:39:22.706Z,100.00
2023-01-02T05:46:41.668Z,100.00
2023-01-02T05:54:01.473Z,100.00
2023-01-02T06:01:21.768Z,100.00
2023-01-02T06:08:40.590Z,100.00
2023-01-02T06:16:01.990Z,100.00
2023-01-02T06:23:20.220Z,100.00
2023-01-02T06:30:38.345Z,100.00
2023-01-02T06:37:58.374Z,100.00
2023-01-02T06:45:16.765Z,100.00
2023-01-02T06:52:35.026Z,100.00
2023-01-02T06:59:54.654Z,100.00
2023-01-02T07:07:12.836Z,100.00
2023-01-02T07:14:31.130Z,100.00
2023-01-02T07:21:50.691Z,100.00
2023-01-02T07:29:09.117Z,100.00
2023-01-02T07:36:27.361Z,100.00
2023-01-02T07:43:47.701Z,100.00
2023-01-02T07:51:07.310Z,100.00
2023-01-02T07:58:26.539Z,100.00
2023-01-02T08:05:46.244Z,100.00
2023-01-02T08:13:04.650Z,100.00
2023-01-02T08:20:22.790Z,100.00
2023-01-02T08:27:44.393Z,100.00
2023-01-02T08:35:02.648Z,100.00
2023-01-02T08:42:21.118Z,100.00
2023-01-02T08:49:40.783Z,100.00
2023-01-02T08:56:59.337Z,100.00
2023-01-02T09:04:17.580Z,100.00
2023-01-02T09:11:38.743Z,100.00
2023-01-02T09:18:58.035Z,100.00
2023-01-02T09:26:16.397Z,100.00
2023-01-02T09:33:36.540Z,86.00
2023-01-02T09:40:55.941Z,76.22
2023-01-02T09:48:18.085Z,68.10
2023-01-02T09:55:46.798Z,64.14
2023-01-02T10:03:13.679Z,68.59
2023-01-02T10:10:35.797Z,72.78
2023-01-02T10:17:59.186Z,71.99
2023-01-02T10:25:22.437Z,67.09
2023-01-02T10:32:40.571Z,67.08
2023-01-02T10:40:00.484Z,72.45
2023-01-02T10:47:23.744Z,71.16
2023-01-02T10:54:56.738Z,68.55
2023-01-02T11:02:28.511Z,71.39
2023-01-02T11:09:56.061Z,73.91
2023-01-02T11:17:17.098Z,77.56
2023-01-02T11:24:49.110Z,83.35
2023-01-02T11:32:09.285Z,85.22
2023-01-02T11:39:27.984Z,89.29
2023-01-02T11:46:48.165Z,92.00
2023-01-02T11:54:13.975Z,94.89
2023-01-02T12:01:47.743Z,94.45
2023-01-02T12:09:11.367Z,97.89
2023-01-02T12:16:35.565Z,97.51
2023-01-02T12:24:30.770Z,98.89
2023-01-02T12:32:06.001Z,96.64
2023-01-02T12:39:54.882Z,95.26
2023-01-02T12:47:28.521Z,94.32
2023-01-02T12:54:57.891Z,96.05
2023-01-02T13:02:27.273Z,98.76
2023-01-02T13:09:46.836Z,99.79
2023-01-02T13:17:33.430Z,100.00
2023-01-02T13:24:52.218Z,100.00
2023-01-02T13:32:12.163Z,100.00
2023-01-02T13:39:45.808Z,100.00
2023-01-02T13:47:11.744Z,100.00
2023-01-02T13:54:38.310Z,100.00
2023-01-02T14:02:18.064Z,100.00
2023-01-02T14:10:03.737Z,100.00
2023-01-02T14:17:29.193Z,100.00
2023-01-02T14:24:51.647Z,100.00
2023-01-02T14:32:17.886Z,100.00
2023-01-02T14:39:37.099Z,100.00
2023-01-02T14:46:58.098Z,100.00
2023-01-02T14:54:18.985Z,100.00
2023-01-02T15:01:42.379Z,100.00
2023-01-02T15:09:10.811Z,100.00
2023-01-02T15:16:29.570Z,100.00
2023-01-02T15:23:48.855Z,100.00
2023-01-02T15:31:15.495Z,100.00
2023-01-02T15:38:36.337Z,100.00
2023-01-02T15:45:58.026Z,100.00
2023-01-02T15:53:22.125Z,100.00
2023-01-02T16:00:40.855Z,100.00
2023-01-02T16:07:59.984Z,100.00
2023-01-02T16:15:22.273Z,100.00
2023-01-02T16:22:44.512Z,100.00
2023-01-02T16:30:18.874Z,100.00
2023-01-02T16:37:40.152Z,100.00
2023-01-02T16:44:59.025Z,100.00
2023-01-02T16:52:17.374Z,100.00
2023-01-02T16:59:36.927Z,100.00
2023-01-02T17:06:56.299Z,100.00
2023-01-02T17:14:14.985Z,100.00
2023-01-02T17:21:34.773Z,100.00
2023-01-02T17:28:53.075Z,100.00
2023-01-02T17:36:11.610Z,100.00
2023-01-02T17:43:31.213Z,100.00
2023-01-02T17:50:52.046Z,100.00
2023-01-02T17:58:10.832Z,100.00
2023-01-02T18:05:31.206Z,100.00
2023-01-02T18:12:50.425Z,100.00
2023-01-02T18:20:12.422Z,100.00
2023-01-02T18:27:34.264Z,100.00
2023-01-02T18:34:59.304Z,100.00
2023-01-02T18:42:20.224Z,100.00
2023-01-02T18:49:43.273Z,100.00
2023-01-02T18:57:02.446Z,100.00
2023-01-02T19:04:28.359Z,100.00
2023-01-02T19:12:07.708Z,100.00
2023-01-02T19:19:27.125Z,100.00
2023-01-02T19:26:47.143Z,100.00
2023-01-02T19:34:25.845Z,100.00
2023-01-02T19:42:01.803Z,100.00
2023-01-02T19:49:21.425Z,100.00
2023-01-02T19:56:39.729Z,100.00
2023-01-02T20:03:58.566Z,100.00
2023-01-02T20:11:36.149Z,100.00
2023-01-02T20:18:54.716Z,100.00
2023-01-02T20:26:13.434Z,100.00
2023-01-02T20:33:32.969Z,100.00
2023-01-02T20:40:51.970Z,100.00
2023-01-02T20:48:10.579Z,100.00
2023-01-02T20:55:30.552Z,100.00
2023-01-02T21:02:48.883Z,100.00
2023-01-02T21:10:08.453Z,100.00
2023-01-02T21:17:28.214Z,100.00
2023-01-02T21:24:46.712Z,100.00
2023-01-02T21:32:05.365Z,100.00
2023-01-02T21:39:24.961Z,100.00
2023-01-02T21:46:43.218Z,100.00
2023-01-02T21:54:01.708Z,100.00
2023-01-02T22:01:21.346Z,100.00
2023-01-02T22:08:40.073Z,100.00
2023-01-02T22:15:58.913Z,100.00
2023-01-02T22:23:18.683Z,100.00
2023-01-02T22:30:37.676Z,100.00
2023-01-02T22:37:57.736Z,100.00
2023-01-02T22:45:20.927Z,100.00
2023-01-02T22:52:39.226Z,100.00
2023-01-02T22:59:58.376Z,100.00
2023-01-02T23:07:24.723Z,100.00
2023-01-02T23:14:43.405Z,100.00
2023-01-02T23:22:02.036Z,100.00
2023-01-02T23:29:22.524Z,100.00
2023-01-02T23:36:41.648Z,100.00
2023-01-02T23:44:00.153Z,100.00
2023-01-02T23:51:19.834Z,100.00
2023-01-02T23:58:38.076Z,100.00
